Time;durP1;ratioP1;P1;durP2;ratioP2;P2;SDS_P1;SDS_P2;PMS_P1;PMS_P2;Temp;Humidity;BMP_temperature;BMP_pressure;BME280_temperature;BME280_humidity;BME280_pressure;Samples;Min_cycle;Max_cycle;Signal;HPM_P1;HPM_P2
2022/05/23 00:01:44;;;;;;;8.93;5.23;;;17.70;84.80;;;;;;5058043;28;20560;-75
2022/05/23 00:04:12;;;;;;;12.83;7.30;;;;;;;;;;5057546;28;20505;-73
2022/05/23 00:06:39;;;;;;;7.30;5.97;;;;;;;;;;5059006;28;20483;-73
2022/05/23 00:09:06;;;;;;;16.83;10.23;;;17.60;86.30;;;;;;5056057;28;21120;-72
2022/05/23 00:11:33;;;;;;;9.80;7.23;;;17.60;86.50;;;;;;5058270;28;20988;-75
2022/05/23 00:14:00;;;;;;;10.03;7.30;;;17.60;86.80;;;;;;5053622;28;20490;-77
2022/05/23 00:16:29;;;;;;;12.13;5.37;;;17.60;87.10;;;;;;5063065;28;20478;-74
2022/05/23 00:18:56;;;;;;;13.13;8.77;;;17.60;87.10;;;;;;5057855;28;20889;-78
2022/05/23 00:21:24;;;;;;;6.50;5.17;;;17.60;87.20;;;;;;5048145;28;20897;-77
2022/05/23 00:23:51;;;;;;;8.37;5.77;;;17.50;87.50;;;;;;5071907;28;20476;-75
2022/05/23 00:26:21;;;;;;;10.60;4.83;;;17.50;87.40;;;;;;5054995;28;20510;-76
2022/05/23 00:28:48;;;;;;;8.70;6.77;;;17.50;87.60;;;;;;5054057;28;20521;-74
2022/05/23 00:31:16;;;;;;;7.10;5.43;;;17.40;87.90;;;;;;5063549;28;20505;-75
2022/05/23 00:36:29;;;;;;;7.63;5.20;;;17.30;88.50;;;;;;5056288;28;20635;-73
2022/05/23 00:38:56;;;;;;;12.67;8.53;;;15.20;87.00;;;;;;5050176;28;20463;-74
2022/05/23 00:44:17;;;;;;;7.80;5.67;;;17.20;89.10;;;;;;5057762;28;20482;-74
2022/05/23 00:46:54;;;;;;;8.87;6.27;;;17.10;89.10;;;;;;5056176;28;20486;-76
2022/05/23 00:49:23;;;;;;;7.00;4.73;;;17.10;89.50;;;;;;5059222;28;20956;-75
2022/05/23 00:51:52;;;;;;;10.30;7.07;;;17.20;89.50;;;;;;5057097;28;20479;-74
2022/05/23 00:54:20;;;;;;;7.40;6.60;;;17.20;89.10;;;;;;5058990;28;20490;-76
2022/05/23 00:56:50;;;;;;;6.87;5.00;;;17.30;88.90;;;;;;5058101;28;20483;-76
2022/05/23 00:59:22;;;;;;;16.10;6.33;;;17.40;88.60;;;;;;5058312;28;20483;-75
2022/05/23 01:01:50;;;;;;;6.93;5.90;;;17.40;88.70;;;;;;5059706;28;20486;-75
2022/05/23 01:04:16;;;;;;;17.53;5.30;;;17.30;88.80;;;;;;5059083;28;21047;-72
2022/05/23 01:06:44;;;;;;;8.30;6.10;;;17.30;88.90;;;;;;5055769;28;20935;-74
2022/05/23 01:09:12;;;;;;;10.40;7.40;;;17.30;89.00;;;;;;5058124;28;20570;-75
2022/05/23 01:11:40;;;;;;;16.93;6.60;;;14.50;86.10;;;;;;5054451;28;21288;-72
2022/05/23 01:14:07;;;;;;;17.33;8.60;;;17.30;89.10;;;;;;5065203;28;20908;-76
2022/05/23 01:16:34;;;;;;;11.63;7.13;;;17.30;89.00;;;;;;5056676;28;20478;-74
2022/05/23 01:19:01;;;;;;;18.93;7.30;;;17.40;88.40;;;;;;5062802;28;20478;-74
2022/05/23 01:21:38;;;;;;;8.80;5.80;;;17.40;88.40;;;;;;5057843;28;20483;-75
2022/05/23 01:24:12;;;;;;;11.50;7.70;;;17.40;88.70;;;;;;5058659;28;20463;-75
2022/05/23 01:26:40;;;;;;;9.93;7.47;;;;;;;;;;5057790;28;20478;-74
2022/05/23 01:29:11;;;;;;;11.80;8.53;;;17.40;89.10;;;;;;5045918;28;20475;-73
2022/05/23 01:31:39;;;;;;;15.00;6.40;;;17.40;89.10;;;;;;5059129;28;20538;-76
2022/05/23 01:34:05;;;;;;;14.83;9.80;;;17.30;89.20;;;;;;5057492;28;20483;-72
2022/05/23 01:36:32;;;;;;;6.50;5.17;;;17.40;89.20;;;;;;5056805;28;20475;-77
2022/05/23 01:38:59;;;;;;;26.00;10.37;;;17.40;89.80;;;;;;5057198;28;20854;-74
2022/05/23 01:41:26;;;;;;;5.87;5.27;;;17.50;89.90;;;;;;5059492;28;20475;-74
2022/05/23 01:43:56;;;;;;;7.40;6.57;;;17.50;89.50;;;;;;5055286;28;21049;-75
2022/05/23 01:46:23;;;;;;;9.03;4.10;;;;;;;;;;5056478;28;20550;-75
2022/05/23 01:48:49;;;;;;;10.00;5.80;;;17.50;89.40;;;;;;5057873;28;20475;-76
2022/05/23 01:51:16;;;;;;;6.70;5.67;;;17.50;89.20;;;;;;5058069;28;20483;-76
2022/05/23 01:53:43;;;;;;;15.77;6.50;;;17.50;89.10;;;;;;5051774;28;20501;-77
2022/05/23 01:56:10;;;;;;;9.93;7.17;;;17.50;89.30;;;;;;5060514;28;20475;-75
2022/05/23 02:01:25;;;;;;;6.37;5.20;;;17.60;89.30;;;;;;5063061;28;20842;-77
2022/05/23 02:03:52;;;;;;;13.83;7.37;;;17.60;89.50;;;;;;5059168;28;20747;-76
2022/05/23 02:06:19;;;;;;;13.83;4.70;;;17.60;90.00;;;;;;5081088;28;20565;-75
2022/05/23 02:08:46;;;;;;;8.30;6.10;;;17.60;90.20;;;;;;5062503;28;20485;-73
2022/05/23 02:11:13;;;;;;;11.90;5.40;;;17.60;90.20;;;;;;5061827;28;20475;-73
2022/05/23 02:13:42;;;;;;;14.80;6.40;;;17.60;90.40;;;;;;5059969;28;20471;-71
2022/05/23 02:16:09;;;;;;;9.20;6.83;;;17.60;90.30;;;;;;5060954;28;20475;-71
2022/05/23 02:18:38;;;;;;;8.97;5.70;;;17.60;90.90;;;;;;5060753;28;20482;-76
2022/05/23 02:21:05;;;;;;;16.53;9.13;;;17.60;90.60;;;;;;5056193;28;20491;-75
2022/05/23 02:23:31;;;;;;;7.80;6.40;;;17.60;91.10;;;;;;5062751;28;20479;-72
2022/05/23 02:25:59;;;;;;;14.23;9.43;;;17.40;91.80;;;;;;5060238;28;20479;-72
2022/05/23 02:28:26;;;;;;;5.63;5.03;;;17.20;92.00;;;;;;5052753;28;20474;-72
2022/05/23 02:30:53;;;;;;;14.63;8.90;;;16.90;92.70;;;;;;5069849;28;20586;-73
2022/05/23 02:33:20;;;;;;;11.43;7.33;;;16.40;93.60;;;;;;5061851;28;20836;-73
2022/05/23 02:35:48;;;;;;;13.47;7.40;;;16.20;94.10;;;;;;5059161;28;20487;-74
2022/05/23 02:38:15;;;;;;;9.20;7.07;;;16.20;94.80;;;;;;5062307;28;20483;-69
2022/05/23 02:40:42;;;;;;;11.97;8.47;;;16.20;95.00;;;;;;5062247;28;20491;-69
2022/05/23 02:43:08;;;;;;;18.93;9.10;;;16.30;95.30;;;;;;5062017;28;20491;-70
2022/05/23 02:45:36;;;;;;;9.13;5.87;;;16.40;95.40;;;;;;5060212;28;20487;-72
2022/05/23 02:48:03;;;;;;;21.50;9.77;;;16.50;95.30;;;;;;5058034;28;20548;-73
2022/05/23 02:50:30;;;;;;;9.87;5.67;;;16.50;95.40;;;;;;5061123;28;20487;-73
2022/05/23 02:52:58;;;;;;;17.77;9.73;;;16.60;95.20;;;;;;5066214;28;21194;-73
2022/05/23 02:55:24;;;;;;;15.80;8.30;;;13.80;93.90;;;;;;5058687;28;20475;-71
2022/05/23 02:57:52;;;;;;;9.30;5.87;;;;;;;;;;5061613;28;20483;-74
2022/05/23 03:00:19;;;;;;;11.07;6.53;;;16.90;94.80;;;;;;5048877;28;20934;-74
2022/05/23 03:03:03;;;;;;;8.37;6.87;;;17.10;94.50;;;;;;5072826;28;20494;-73
2022/05/23 03:05:32;;;;;;;13.30;6.70;;;17.10;94.80;;;;;;5049148;28;20474;-72
2022/05/23 03:08:00;;;;;;;18.60;11.67;;;17.10;95.10;;;;;;5055958;28;20489;-74
2022/05/23 03:10:27;;;;;;;6.50;5.27;;;17.00;95.60;;;;;;5040314;28;20491;-72
2022/05/23 03:12:54;;;;;;;9.57;7.20;;;17.00;95.90;;;;;;5050049;28;20481;-71
2022/05/23 03:15:21;;;;;;;17.20;9.73;;;17.00;95.40;;;;;;5075022;28;20534;-73
2022/05/23 03:17:48;;;;;;;16.80;9.70;;;17.00;95.70;;;;;;5057005;28;20482;-73
2022/05/23 03:20:16;;;;;;;7.77;6.63;;;17.10;95.50;;;;;;5065542;28;20486;-72
2022/05/23 03:28:13;;;;;;;18.53;7.23;;;17.10;96.50;;;;;;5057251;28;20665;-74
2022/05/23 03:30:40;;;;;;;10.07;6.00;;;17.10;96.70;;;;;;5061700;28;20700;-72
2022/05/23 03:33:08;;;;;;;12.80;8.80;;;;;;;;;;5060763;28;20474;-75
2022/05/23 03:35:35;;;;;;;9.93;6.43;;;17.00;97.20;;;;;;5069387;28;20481;-74
2022/05/23 03:38:04;;;;;;;10.63;9.40;;;17.00;97.10;;;;;;5056584;28;20475;-71
2022/05/23 03:40:33;;;;;;;5.67;5.07;;;17.00;96.90;;;;;;5052584;28;20551;-74
2022/05/23 03:43:00;;;;;;;14.57;10.57;;;17.00;97.00;;;;;;5056497;28;20490;-73
2022/05/23 03:45:27;;;;;;;12.60;8.47;;;17.10;96.70;;;;;;5059444;28;20486;-75
2022/05/23 03:47:55;;;;;;;11.87;8.67;;;17.20;96.30;;;;;;5059381;28;20478;-75
2022/05/23 03:50:24;;;;;;;8.50;7.57;;;17.10;96.80;;;;;;5052328;28;20509;-74
2022/05/23 03:52:50;;;;;;;6.93;6.23;;;17.20;96.80;;;;;;5056894;28;20475;-73
2022/05/23 03:55:17;;;;;;;8.27;7.27;;;17.10;96.40;;;;;;5058621;28;20854;-71
2022/05/23 03:57:45;;;;;;;8.30;6.07;;;17.10;96.70;;;;;;5057352;28;20578;-74
2022/05/23 04:00:13;;;;;;;9.53;8.27;;;17.00;96.80;;;;;;5057005;28;20846;-73
2022/05/23 04:02:40;;;;;;;6.90;6.30;;;17.00;96.70;;;;;;5068239;28;20461;-75
2022/05/23 04:05:12;;;;;;;11.07;9.50;;;17.00;96.60;;;;;;5017248;28;20855;-74
2022/05/23 04:07:40;;;;;;;7.80;6.23;;;16.90;96.90;;;;;;5043793;28;20804;-76
2022/05/23 04:10:10;;;;;;;14.20;9.37;;;16.90;97.20;;;;;;5058840;28;20488;-74
2022/05/23 04:12:37;;;;;;;7.80;6.23;;;16.80;97.10;;;;;;5058613;28;20490;-72
2022/05/23 04:15:07;;;;;;;12.47;10.60;;;16.80;97.20;;;;;;5057667;28;20490;-75
2022/05/23 04:17:34;;;;;;;19.60;7.47;;;16.80;97.50;;;;;;5057590;28;21033;-72
2022/05/23 04:20:01;;;;;;;11.67;9.10;;;16.80;97.20;;;;;;5052725;28;20840;-73
2022/05/23 04:22:28;;;;;;;7.40;5.40;;;16.90;97.10;;;;;;5062898;28;20598;-73
2022/05/23 04:24:55;;;;;;;18.43;8.00;;;16.90;97.20;;;;;;5047422;28;20483;-73
2022/05/23 04:27:22;;;;;;;10.80;7.53;;;16.90;97.50;;;;;;5056949;28;20489;-73
2022/05/23 04:29:48;;;;;;;8.73;6.80;;;16.90;97.50;;;;;;5059599;28;20483;-75
2022/05/23 04:35:16;;;;;;;13.37;10.27;;;16.90;97.50;;;;;;5049503;28;21684;-76
2022/05/23 04:37:44;;;;;;;9.80;6.80;;;16.80;97.60;;;;;;5035074;28;20489;-76
2022/05/23 04:40:13;;;;;;;10.20;7.90;;;16.70;98.00;;;;;;5047111;28;20493;-75
2022/05/23 04:42:40;;;;;;;15.23;6.47;;;16.70;98.10;;;;;;5045672;28;20474;-73
2022/05/23 04:45:08;;;;;;;8.53;7.73;;;16.80;98.00;;;;;;5039061;28;20753;-76
2022/05/23 04:50:21;;;;;;;8.17;7.27;;;16.90;98.50;;;;;;5044396;28;20552;-76
2022/05/23 04:52:48;;;;;;;9.87;7.77;;;16.90;98.60;;;;;;5055067;28;20475;-75
2022/05/23 04:55:15;;;;;;;16.73;7.50;;;17.00;98.30;;;;;;5059646;28;20519;-74
2022/05/23 04:57:42;;;;;;;11.13;7.50;;;17.10;98.30;;;;;;5057011;28;20487;-74
2022/05/23 05:00:13;;;;;;;15.53;8.50;;;17.20;98.00;;;;;;5043223;28;20483;-73
2022/05/23 05:02:41;;;;;;;13.00;6.10;;;17.20;97.70;;;;;;5053912;28;20590;-73
2022/05/23 05:05:09;;;;;;;9.90;7.70;;;17.30;97.40;;;;;;5055778;28;20483;-72
2022/05/23 05:07:36;;;;;;;10.37;6.87;;;17.30;97.20;;;;;;5040502;28;20481;-73
2022/05/23 05:10:03;;;;;;;16.47;8.03;;;17.40;96.90;;;;;;5053297;28;20475;-74
2022/05/23 05:12:29;;;;;;;8.63;6.47;;;17.50;97.10;;;;;;5056728;28;20479;-74
2022/05/23 05:14:56;;;;;;;16.73;9.10;;;17.50;97.20;;;;;;5055527;28;20478;-74
2022/05/23 05:17:23;;;;;;;13.23;6.17;;;17.50;98.20;;;;;;5045322;28;20491;-75
2022/05/23 05:19:51;;;;;;;7.43;6.50;;;17.30;98.10;;;;;;5049796;28;20482;-74
2022/05/23 05:22:18;;;;;;;6.77;6.00;;;17.30;98.40;;;;;;5054962;28;20479;-75
2022/05/23 05:24:45;;;;;;;13.43;5.73;;;17.30;98.10;;;;;;5054825;28;20482;-73
2022/05/23 05:27:12;;;;;;;8.30;7.23;;;17.10;98.50;;;;;;5048921;28;20486;-74
2022/05/23 05:29:39;;;;;;;7.23;6.50;;;17.00;98.90;;;;;;5050120;28;20844;-73
2022/05/23 05:32:12;;;;;;;12.83;5.90;;;16.80;99.30;;;;;;5064020;28;20482;-73
2022/05/23 05:34:47;;;;;;;6.50;5.53;;;16.70;99.40;;;;;;5056923;28;20493;-73
2022/05/23 05:37:22;;;;;;;12.30;5.70;;;16.80;99.50;;;;;;5059330;28;20976;-74
2022/05/23 05:39:50;;;;;;;6.13;5.60;;;16.80;99.50;;;;;;5059666;28;20493;-75
2022/05/23 05:42:22;;;;;;;7.53;6.83;;;16.70;99.70;;;;;;5041207;28;20479;-71
2022/05/23 05:44:54;;;;;;;10.23;6.43;;;16.70;99.90;;;;;;5057187;28;20493;-76
2022/05/23 05:47:21;;;;;;;7.27;6.57;;;16.70;99.90;;;;;;5057740;28;21194;-74
2022/05/23 05:49:53;;;;;;;27.80;6.60;;;16.80;99.90;;;;;;5062356;28;20972;-73
2022/05/23 05:52:24;;;;;;;13.00;6.10;;;17.00;99.90;;;;;;5062369;28;20475;-72
2022/05/23 05:54:52;;;;;;;11.17;7.80;;;17.00;99.90;;;;;;5045899;28;20470;-71
2022/05/23 05:57:20;;;;;;;18.93;7.20;;;17.20;99.90;;;;;;5061414;28;20485;-74
2022/05/23 05:59:49;;;;;;;5.90;5.30;;;17.30;99.90;;;;;;5060673;28;20481;-75
2022/05/23 06:02:16;;;;;;;9.63;6.83;;;17.30;99.90;;;;;;5056133;28;20497;-73
2022/05/23 06:04:43;;;;;;;6.87;5.60;;;17.30;99.90;;;;;;5056073;28;20554;-75
2022/05/23 06:12:48;;;;;;;15.57;6.70;;;17.00;99.30;;;;;;5061422;28;20489;-76
2022/05/23 06:15:15;;;;;;;6.57;5.77;;;;;;;;;;5058680;28;20549;-73
2022/05/23 06:17:43;;;;;;;6.30;5.70;;;17.50;99.70;;;;;;5054888;28;20486;-75
2022/05/23 06:20:11;;;;;;;12.67;7.20;;;17.50;99.50;;;;;;5058611;28;20483;-76
2022/05/23 06:22:38;;;;;;;7.70;7.00;;;17.60;99.60;;;;;;5051832;28;20482;-76
2022/05/23 06:25:08;;;;;;;10.20;8.40;;;17.60;99.80;;;;;;5055393;28;20822;-77
2022/05/23 06:27:35;;;;;;;8.70;6.07;;;17.60;99.60;;;;;;5057231;28;20476;-73
2022/05/23 06:30:04;;;;;;;12.33;9.07;;;17.70;99.90;;;;;;5058809;28;20561;-74
2022/05/23 06:32:32;;;;;;;7.87;6.50;;;17.70;99.90;;;;;;5060526;28;21092;-74
2022/05/23 06:34:58;;;;;;;18.97;9.10;;;17.70;99.60;;;;;;5061781;28;20835;-74
2022/05/23 06:37:26;;;;;;;8.57;7.70;;;17.70;99.70;;;;;;5059550;28;20463;-73
2022/05/23 06:39:54;;;;;;;11.13;9.13;;;17.70;99.70;;;;;;5060916;28;20474;-73
2022/05/23 06:42:22;;;;;;;14.00;7.53;;;17.70;99.90;;;;;;5059857;28;21003;-76
2022/05/23 06:44:49;;;;;;;9.67;8.40;;;;;;;;;;5060029;28;20882;-74
2022/05/23 06:47:17;;;;;;;8.20;7.30;;;;;;;;;;5056464;28;20467;-74
2022/05/23 06:49:43;;;;;;;18.40;7.63;;;18.20;99.80;;;;;;5059660;28;20483;-76
2022/05/23 06:52:10;;;;;;;11.70;8.23;;;18.30;99.90;;;;;;5060421;28;20482;-74
2022/05/23 06:54:37;;;;;;;9.60;8.70;;;18.40;99.40;;;;;;5061759;28;20891;-74
2022/05/23 06:57:04;;;;;;;13.67;8.63;;;18.60;99.70;;;;;;5056516;28;20887;-73
2022/05/23 06:59:32;;;;;;;10.03;8.53;;;18.80;99.50;;;;;;5060304;28;20475;-74
2022/05/23 07:01:59;;;;;;;17.67;12.73;;;19.00;99.00;;;;;;5060536;28;20479;-73
2022/05/23 07:12:19;;;;;;;16.50;7.53;;;19.40;98.80;;;;;;5057768;28;20518;-71
2022/05/23 07:12:41;;;;;;;8.03;7.23;;;19.50;96.80;;;;;;5061997;28;21084;-74
2022/05/23 07:15:11;;;;;;;13.10;10.00;;;19.50;97.10;;;;;;5060064;28;20490;-72
2022/05/23 07:17:38;;;;;;;11.17;8.03;;;19.60;97.50;;;;;;5058055;28;20470;-74
2022/05/23 07:20:06;;;;;;;13.03;9.47;;;19.80;97.70;;;;;;5051991;28;20489;-73
2022/05/23 07:22:34;;;;;;;9.40;8.37;;;19.80;97.00;;;;;;5064482;28;20484;-73
2022/05/23 07:25:02;;;;;;;13.90;10.70;;;19.80;96.70;;;;;;5059897;28;20888;-76
2022/05/23 07:27:30;;;;;;;17.93;8.10;;;19.80;97.20;;;;;;5032417;28;20508;-73
2022/05/23 07:29:57;;;;;;;12.87;10.20;;;19.90;97.30;;;;;;5044756;28;20505;-72
2022/05/23 07:32:26;;;;;;;8.93;8.03;;;20.10;97.20;;;;;;5058553;28;20475;-73
2022/05/23 07:34:52;;;;;;;17.77;8.07;;;20.50;97.30;;;;;;5059016;28;20494;-72
2022/05/23 07:37:20;;;;;;;11.20;7.67;;;;;;;;;;5056995;28;20480;-77
2022/05/23 07:39:47;;;;;;;13.30;7.47;;;;;;;;;;5059825;28;20496;-73
2022/05/23 07:42:14;;;;;;;18.33;7.67;;;21.70;94.30;;;;;;5059715;28;20545;-73
2022/05/23 07:44:41;;;;;;;8.90;7.00;;;22.00;95.20;;;;;;5058286;28;20921;-71
2022/05/23 07:47:08;;;;;;;9.97;8.97;;;22.00;95.30;;;;;;5053163;28;20811;-76
2022/05/23 07:49:36;;;;;;;15.53;7.03;;;22.20;94.10;;;;;;5058501;28;20481;-74
2022/05/23 07:52:04;;;;;;;15.67;10.33;;;22.30;93.90;;;;;;5056762;28;20830;-71
2022/05/23 08:02:45;;;;;;;11.10;6.17;;;22.20;92.20;;;;;;5044560;28;20829;-71
2022/05/23 08:05:13;;;;;;;8.70;7.53;;;22.30;93.70;;;;;;5039633;28;20483;-75
2022/05/23 08:07:41;;;;;;;12.17;6.20;;;22.30;94.50;;;;;;5036833;28;21168;-73
2022/05/23 08:10:08;;;;;;;9.20;8.27;;;22.40;93.20;;;;;;5037576;28;20483;-72
2022/05/23 08:12:36;;;;;;;7.37;6.63;;;22.40;93.50;;;;;;5040412;28;20486;-74
2022/05/23 08:15:03;;;;;;;12.63;9.50;;;;;;;;;;5026928;28;20543;-76
2022/05/23 08:17:29;;;;;;;6.97;6.07;;;22.60;93.20;;;;;;5034259;28;20476;-73
2022/05/23 08:19:56;;;;;;;8.53;7.20;;;22.70;93.10;;;;;;5033452;28;20494;-73
2022/05/23 08:22:26;;;;;;;9.40;7.23;;;22.80;94.40;;;;;;5035523;28;21264;-73
2022/05/23 08:24:53;;;;;;;10.57;8.07;;;22.80;92.60;;;;;;5038665;28;20483;-74
2022/05/23 08:27:21;;;;;;;17.87;5.50;;;23.00;94.00;;;;;;5032787;28;20662;-74
2022/05/23 08:29:48;;;;;;;6.97;5.60;;;23.00;93.70;;;;;;5036760;28;20566;-78
2022/05/23 08:32:16;;;;;;;7.53;6.20;;;23.00;92.80;;;;;;5038517;28;20498;-73
2022/05/23 08:34:43;;;;;;;14.50;6.20;;;23.30;94.30;;;;;;5039774;28;20511;-73
2022/05/23 08:37:10;;;;;;;8.20;6.70;;;23.50;93.30;;;;;;5033392;28;20499;-74
2022/05/23 08:39:38;;;;;;;7.33;6.63;;;23.60;93.10;;;;;;5037757;28;20484;-75
2022/05/23 08:42:13;;;;;;;11.73;7.23;;;23.40;91.70;;;;;;5050201;28;20509;-72
2022/05/23 08:44:45;;;;;;;5.97;5.37;;;23.40;92.30;;;;;;5058279;28;20531;-74
2022/05/23 08:47:21;;;;;;;23.60;7.07;;;23.30;92.10;;;;;;5053239;28;20574;-77
2022/05/23 08:49:56;;;;;;;7.60;5.97;;;23.20;92.60;;;;;;5058287;28;20474;-75
2022/05/23 08:52:30;;;;;;;6.23;5.63;;;23.00;92.30;;;;;;5057090;28;20489;-76
2022/05/23 08:55:03;;;;;;;9.23;7.10;;;23.00;92.30;;;;;;5056460;28;20490;-73
2022/05/23 08:57:36;;;;;;;7.67;6.67;;;23.00;93.10;;;;;;5052212;28;20506;-73
2022/05/23 09:00:07;;;;;;;8.53;7.60;;;23.00;92.50;;;;;;5056533;28;21187;-73
2022/05/23 09:02:39;;;;;;;6.47;5.57;;;23.20;92.60;;;;;;5059359;28;20813;-72
2022/05/23 09:05:10;;;;;;;7.47;6.67;;;23.40;93.10;;;;;;5062764;28;20481;-76
2022/05/23 09:07:42;;;;;;;5.60;5.10;;;23.50;92.90;;;;;;5060912;28;20994;-76
2022/05/23 09:10:17;;;;;;;8.97;6.67;;;23.60;92.90;;;;;;5052083;28;20811;-73
2022/05/23 09:12:44;;;;;;;5.60;5.20;;;23.70;92.20;;;;;;5064384;28;20487;-73
2022/05/23 09:15:10;;;;;;;7.50;6.20;;;23.70;92.30;;;;;;5060138;28;20566;-74
2022/05/23 09:17:42;;;;;;;8.00;6.17;;;23.90;92.70;;;;;;5060803;28;20475;-75
2022/05/23 09:20:13;;;;;;;11.63;6.80;;;24.00;92.80;;;;;;5048458;28;20470;-73
2022/05/23 09:22:47;;;;;;;6.03;5.53;;;24.10;93.20;;;;;;5059134;28;20486;-70
2022/05/23 09:25:18;;;;;;;5.00;4.33;;;24.20;91.70;;;;;;5056908;28;20542;-75
2022/05/23 09:27:49;;;;;;;7.27;4.87;;;24.10;91.80;;;;;;5058992;28;21114;-73
2022/05/23 09:30:21;;;;;;;7.20;4.30;;;24.20;93.10;;;;;;5063103;28;20897;-72
2022/05/23 09:32:53;;;;;;;5.60;4.57;;;24.20;93.00;;;;;;5062901;28;20479;-76
2022/05/23 09:35:22;;;;;;;13.03;7.10;;;24.30;93.40;;;;;;5061723;28;20565;-75
2022/05/23 09:38:05;;;;;;;15.70;5.90;;;24.40;93.30;;;;;;5059606;28;20478;-70
2022/05/23 09:40:37;;;;;;;14.60;7.37;;;24.20;92.60;;;;;;5060489;28;20502;-74
2022/05/23 09:49:11;;;;;;;10.80;6.73;;;23.70;95.50;;;;;;5061585;28;20486;-74
2022/05/23 09:51:55;;;;;;;8.80;6.97;;;23.60;96.10;;;;;;5059979;28;20479;-74
2022/05/23 09:54:27;;;;;;;11.97;6.60;;;23.50;95.60;;;;;;5061394;28;20536;-72
2022/05/23 09:56:57;;;;;;;7.93;5.97;;;23.40;95.20;;;;;;5050572;28;20479;-73
2022/05/23 09:59:29;;;;;;;6.10;5.53;;;23.20;94.40;;;;;;5061655;28;20876;-76
2022/05/23 10:01:56;;;;;;;20.40;9.70;;;23.20;95.00;;;;;;5060391;28;20475;-72
2022/05/23 10:04:27;;;;;;;7.27;6.57;;;23.20;95.20;;;;;;5059681;28;20475;-73
2022/05/23 10:06:54;;;;;;;10.30;7.20;;;;;;;;;;5056535;28;20939;-69
2022/05/23 10:09:27;;;;;;;15.30;5.87;;;23.10;94.50;;;;;;5060582;28;20482;-71
2022/05/23 10:11:59;;;;;;;12.30;9.00;;;23.10;95.30;;;;;;5055863;28;20483;-72
2022/05/23 10:14:38;;;;;;;15.60;5.23;;;23.00;94.60;;;;;;5061984;28;21003;-73
2022/05/23 10:17:05;;;;;;;10.50;9.10;;;23.00;94.10;;;;;;5056304;28;20471;-71
2022/05/23 10:19:35;;;;;;;12.97;7.27;;;23.00;95.00;;;;;;5057131;28;20485;-72
2022/05/23 10:22:10;;;;;;;13.07;9.10;;;23.00;96.00;;;;;;5058399;28;20494;-72
2022/05/23 10:24:39;;;;;;;6.40;5.60;;;23.00;95.70;;;;;;5057189;28;20486;-72
2022/05/23 10:27:13;;;;;;;18.03;6.83;;;22.80;95.60;;;;;;5057352;28;20779;-75
2022/05/23 10:29:48;;;;;;;9.37;7.50;;;22.70;95.70;;;;;;5051571;28;20473;-73
2022/05/23 10:32:22;;;;;;;5.90;5.40;;;22.70;95.90;;;;;;5050578;28;20513;-74
2022/05/23 10:34:51;;;;;;;8.43;6.23;;;22.70;96.00;;;;;;5059196;28;20478;-75
2022/05/23 10:37:21;;;;;;;8.43;7.00;;;22.70;95.80;;;;;;5056542;28;20483;-77
2022/05/23 10:42:41;;;;;;;12.40;7.50;;;22.90;96.30;;;;;;5061595;28;20531;-74
2022/05/23 10:45:20;;;;;;;11.60;7.87;;;23.00;96.50;;;;;;5058443;28;20866;-73
2022/05/23 10:48:13;;;;;;;9.33;6.00;;;23.00;96.10;;;;;;5050720;28;20467;-72
2022/05/23 10:50:49;;;;;;;8.40;6.40;;;23.00;96.70;;;;;;5041765;28;20487;-75
2022/05/23 10:53:22;;;;;;;16.50;5.70;;;23.00;96.70;;;;;;5053801;28;20874;-75
2022/05/23 10:55:57;;;;;;;8.20;5.80;;;22.90;96.90;;;;;;5058079;28;20486;-75
2022/05/23 10:58:36;;;;;;;20.20;6.30;;;22.90;97.20;;;;;;5062221;28;20478;-74
2022/05/23 11:01:13;;;;;;;9.40;6.90;;;22.80;97.20;;;;;;5057644;28;20908;-74
2022/05/23 11:03:53;;;;;;;9.23;5.67;;;22.70;97.40;;;;;;5048740;28;21145;-73
2022/05/23 11:06:29;;;;;;;7.20;5.90;;;22.70;97.60;;;;;;5056941;28;21228;-71
2022/05/23 11:09:06;;;;;;;8.03;6.87;;;22.80;98.30;;;;;;5055979;28;20481;-75
2022/05/23 11:11:57;;;;;;;9.60;7.97;;;22.70;97.90;;;;;;5058677;28;20552;-71
2022/05/23 11:14:33;;;;;;;15.40;6.80;;;22.70;97.80;;;;;;5060770;28;21181;-72
2022/05/23 11:17:12;;;;;;;11.30;9.93;;;22.60;97.30;;;;;;5052869;28;20483;-74
2022/05/23 11:19:53;;;;;;;17.63;7.80;;;22.50;97.70;;;;;;5059517;28;20505;-70
2022/05/23 11:22:27;;;;;;;13.40;8.40;;;22.50;98.00;;;;;;5056950;28;20478;-73
2022/05/23 11:25:01;;;;;;;16.43;7.50;;;22.50;97.80;;;;;;5058271;28;20766;-72
2022/05/23 11:35:49;;;;;;;10.57;9.40;;;22.30;97.00;;;;;;5055217;28;20485;-73
2022/05/23 11:38:18;;;;;;;10.37;8.17;;;22.50;97.00;;;;;;5059184;28;20475;-71
2022/05/23 11:41:11;;;;;;;15.23;9.00;;;22.50;96.70;;;;;;5061227;28;20478;-77
2022/05/23 11:43:39;;;;;;;12.70;9.80;;;22.40;96.70;;;;;;5054909;28;20459;-74
2022/05/23 11:46:12;;;;;;;18.57;13.90;;;22.50;97.10;;;;;;5054228;28;20819;-74
2022/05/23 11:48:58;;;;;;;12.47;11.30;;;22.50;96.50;;;;;;5061100;28;20485;-74
2022/05/23 11:51:41;;;;;;;12.50;11.20;;;22.40;96.70;;;;;;5059873;28;20475;-75
2022/05/23 11:54:28;;;;;;;13.93;11.00;;;22.60;97.20;;;;;;5059427;28;21116;-73
2022/05/23 11:57:12;;;;;;;14.63;10.90;;;22.50;96.90;;;;;;5053339;28;20475;-72
2022/05/23 12:00:27;;;;;;;17.00;11.70;;;22.50;96.60;;;;;;5057645;28;20479;-73
2022/05/23 12:03:09;;;;;;;14.93;12.37;;;22.70;96.70;;;;;;5012137;28;20535;-73
2022/05/23 12:05:36;;;;;;;15.23;11.20;;;23.00;96.10;;;;;;5011709;28;20473;-75
2022/05/23 12:08:06;;;;;;;19.87;13.40;;;23.10;96.00;;;;;;5024379;28;20487;-74
2022/05/23 12:10:54;;;;;;;12.53;11.30;;;23.30;97.10;;;;;;5039636;28;20479;-75
2022/05/23 12:13:52;;;;;;;14.47;12.87;;;23.70;96.40;;;;;;5038251;28;20507;-73
2022/05/23 12:16:48;;;;;;;17.27;9.33;;;24.00;96.80;;;;;;5030822;28;20482;-71
2022/05/23 12:19:48;;;;;;;11.07;9.00;;;23.90;95.60;;;;;;5022633;28;20477;-73
2022/05/23 12:22:27;;;;;;;10.00;9.00;;;24.10;96.40;;;;;;5037795;28;20526;-75
2022/05/23 12:25:21;;;;;;;9.07;8.20;;;24.10;95.40;;;;;;5038136;28;20541;-71
2022/05/23 12:28:14;;;;;;;15.93;8.90;;;24.30;95.00;;;;;;5039371;28;20729;-72
2022/05/23 12:30:45;;;;;;;8.63;7.50;;;;;;;;;;5057614;28;20471;-73
2022/05/23 12:33:23;;;;;;;10.67;9.57;;;24.70;96.90;;;;;;5052224;28;20533;-72
2022/05/23 12:35:58;;;;;;;9.97;7.43;;;24.80;93.60;;;;;;5033745;28;20579;-74
2022/05/23 12:38:46;;;;;;;24.60;8.43;;;24.90;94.70;;;;;;5059442;28;20482;-71
2022/05/23 12:41:33;;;;;;;13.23;9.70;;;25.10;93.60;;;;;;5055040;28;20490;-73
2022/05/23 12:44:36;;;;;;;11.23;10.10;;;25.10;94.00;;;;;;5027648;28;20971;-75
2022/05/23 12:47:16;;;;;;;10.43;9.30;;;24.90;93.10;;;;;;5053874;28;20501;-74
2022/05/23 12:49:51;;;;;;;19.03;7.30;;;25.30;93.00;;;;;;5047127;28;20478;-72
2022/05/23 12:52:38;;;;;;;5.47;4.97;;;25.40;93.40;;;;;;5060362;28;20528;-71
2022/05/23 12:55:19;;;;;;;14.53;6.40;;;25.40;91.20;;;;;;5057977;28;20489;-76
2022/05/23 12:58:16;;;;;;;7.77;4.80;;;25.40;91.80;;;;;;5054826;28;20470;-73
2022/05/23 13:00:46;;;;;;;5.60;5.00;;;25.70;92.60;;;;;;5055327;28;20463;-72
2022/05/23 13:03:18;;;;;;;4.00;3.70;;;;;;;;;;5056492;28;20494;-72
2022/05/23 13:05:55;;;;;;;6.70;4.03;;;25.90;90.20;;;;;;5058503;28;20474;-74
2022/05/23 13:08:28;;;;;;;8.30;4.60;;;26.00;90.90;;;;;;5051721;28;20478;-73
2022/05/23 13:10:59;;;;;;;12.40;4.63;;;26.00;90.00;;;;;;5055049;28;20497;-70
2022/05/23 13:13:31;;;;;;;5.13;4.70;;;26.10;90.40;;;;;;5058969;28;21001;-73
2022/05/23 13:16:14;;;;;;;8.97;3.00;;;25.90;86.90;;;;;;5054292;28;20483;-72
2022/05/23 13:24:48;;;;;;;9.70;3.93;;;25.60;87.80;;;;;;5056847;28;21377;-77
2022/05/23 13:27:03;;;;;;;5.17;3.07;;;25.60;87.50;;;;;;5049916;28;20541;-77
2022/05/23 13:29:31;;;;;;;5.17;4.10;;;25.70;89.00;;;;;;5056798;28;20462;-71
2022/05/23 13:32:00;;;;;;;10.27;4.03;;;25.70;89.40;;;;;;5056810;28;20493;-75
2022/05/23 13:34:33;;;;;;;6.27;3.43;;;25.70;88.30;;;;;;5059638;28;20474;-72
2022/05/23 13:36:59;;;;;;;5.60;3.33;;;26.00;87.70;;;;;;5052313;28;20965;-69
2022/05/23 13:39:29;;;;;;;4.57;2.60;;;26.20;90.00;;;;;;5057735;28;20479;-74
2022/05/23 13:41:56;;;;;;;6.20;3.37;;;26.40;89.10;;;;;;5056500;28;20540;-78
2022/05/23 13:44:26;;;;;;;4.70;3.10;;;26.20;86.70;;;;;;5060049;28;20987;-72
2022/05/23 13:46:58;;;;;;;3.37;3.00;;;26.00;86.10;;;;;;5058278;28;20660;-70
2022/05/23 13:49:30;;;;;;;8.07;3.23;;;26.10;86.80;;;;;;5059595;28;21088;-79
2022/05/23 13:52:01;;;;;;;5.40;3.53;;;25.90;87.40;;;;;;5055168;28;20481;-70
2022/05/23 13:54:34;;;;;;;9.17;4.50;;;26.00;88.30;;;;;;5062421;28;20474;-74
2022/05/23 13:57:06;;;;;;;9.77;3.80;;;26.20;88.30;;;;;;5049672;28;20492;-73
2022/05/23 13:59:39;;;;;;;11.57;4.10;;;26.30;89.20;;;;;;5058563;28;20485;-71
2022/05/23 14:02:11;;;;;;;4.67;2.67;;;27.90;87.70;;;;;;5063043;28;21019;-71
2022/05/23 14:04:40;;;;;;;3.83;2.80;;;26.50;88.20;;;;;;5060051;28;20478;-74
2022/05/23 14:07:10;;;;;;;7.00;3.93;;;26.60;89.20;;;;;;5051052;28;20495;-71